sensor_id;sensor_type;location;lat;lon;timestamp;pressure;altitude;pressure_sealevel;temperature;humidity
788;BME280;16074;42.708;23.312;2022-08-05T00:00:15;95066.72;;;22.27;60.38
788;BME280;16074;42.708;23.312;2022-08-05T00:02:44;95072.59;;;22.24;60.68
788;BME280;16074;42.708;23.312;2022-08-05T00:05:19;95071.78;;;22.23;61.04
788;BME280;16074;42.708;23.312;2022-08-05T00:08:08;95074.63;;;22.17;60.73
788;BME280;16074;42.708;23.312;2022-08-05T00:10:56;95070.78;;;22.08;60.72
788;BME280;16074;42.708;23.312;2022-08-05T00:13:27;95070.88;;;21.96;61.33
788;BME280;16074;42.708;23.312;2022-08-05T00:16:05;95064.41;;;21.92;61.70
788;BME280;16074;42.708;23.312;2022-08-05T00:18:34;95061.34;;;21.84;61.57
788;BME280;16074;42.708;23.312;2022-08-05T00:21:05;95057.81;;;21.78;61.58
788;BME280;16074;42.708;23.312;2022-08-05T00:23:34;95062.34;;;21.78;62.22
788;BME280;16074;42.708;23.312;2022-08-05T00:26:13;95066.47;;;21.69;61.30
788;BME280;16074;42.708;23.312;2022-08-05T00:28:42;95053.03;;;21.64;62.31
788;BME280;16074;42.708;23.312;2022-08-05T00:31:11;95061.63;;;21.66;62.59
788;BME280;16074;42.708;23.312;2022-08-05T00:33:40;95052.81;;;21.66;62.59
788;BME280;16074;42.708;23.312;2022-08-05T00:36:29;95058.09;;;21.61;62.85
788;BME280;16074;42.708;23.312;2022-08-05T00:39:18;95050.75;;;21.56;62.96
788;BME280;16074;42.708;23.312;2022-08-05T00:41:50;95050.19;;;21.54;62.75
788;BME280;16074;42.708;23.312;2022-08-05T00:44:21;95052.56;;;21.51;62.66
788;BME280;16074;42.708;23.312;2022-08-05T00:46:57;95049.38;;;21.54;62.95
788;BME280;16074;42.708;23.312;2022-08-05T00:49:30;95053.88;;;21.48;62.58
788;BME280;16074;42.708;23.312;2022-08-05T00:52:18;95048.53;;;21.48;62.55
788;BME280;16074;42.708;23.312;2022-08-05T00:54:54;95060.97;;;21.43;63.12
788;BME280;16074;42.708;23.312;2022-08-05T00:57:24;95056.28;;;21.33;63.44
788;BME280;16074;42.708;23.312;2022-08-05T01:00:12;95052.66;;;21.23;63.32
788;BME280;16074;42.708;23.312;2022-08-05T01:02:42;95050.47;;;21.20;63.58
788;BME280;16074;42.708;23.312;2022-08-05T01:05:11;95052.09;;;21.21;63.65
788;BME280;16074;42.708;23.312;2022-08-05T01:07:41;95052.31;;;21.03;63.78
788;BME280;16074;42.708;23.312;2022-08-05T01:10:34;95063.13;;;20.96;64.89
788;BME280;16074;42.708;23.312;2022-08-05T01:13:09;95051.66;;;20.96;65.19
788;BME280;16074;42.708;23.312;2022-08-05T01:15:54;95052.41;;;20.91;65.17
788;BME280;16074;42.708;23.312;2022-08-05T01:18:28;95048.81;;;20.86;65.19
788;BME280;16074;42.708;23.312;2022-08-05T01:21:07;95054.41;;;20.84;65.32
788;BME280;16074;42.708;23.312;2022-08-05T01:24:09;95057.66;;;20.75;65.56
788;BME280;16074;42.708;23.312;2022-08-05T01:26:51;95062.91;;;20.81;66.01
788;BME280;16074;42.708;23.312;2022-08-05T01:29:29;95065.34;;;20.71;65.77
788;BME280;16074;42.708;23.312;2022-08-05T01:32:03;95065.56;;;20.70;66.44
788;BME280;16074;42.708;23.312;2022-08-05T01:34:46;95071.31;;;20.62;66.70
788;BME280;16074;42.708;23.312;2022-08-05T01:37:18;95067.13;;;20.66;66.56
788;BME280;16074;42.708;23.312;2022-08-05T01:39:52;95064.25;;;20.56;66.55
788;BME280;16074;42.708;23.312;2022-08-05T01:42:26;95064.66;;;20.48;66.92
788;BME280;16074;42.708;23.312;2022-08-05T01:45:00;95067.22;;;20.43;66.64
788;BME280;16074;42.708;23.312;2022-08-05T01:47:30;95072.44;;;20.38;66.02
788;BME280;16074;42.708;23.312;2022-08-05T01:50:08;95071.97;;;20.41;66.63
788;BME280;16074;42.708;23.312;2022-08-05T01:52:43;95068.41;;;20.36;66.47
788;BME280;16074;42.708;23.312;2022-08-05T01:55:17;95069.78;;;20.38;66.87
788;BME280;16074;42.708;23.312;2022-08-05T01:57:48;95071.66;;;20.38;67.22
788;BME280;16074;42.708;23.312;2022-08-05T02:00:42;95071.06;;;20.36;66.39
788;BME280;16074;42.708;23.312;2022-08-05T02:03:15;95079.66;;;20.26;66.93
788;BME280;16074;42.708;23.312;2022-08-05T02:05:59;95072.81;;;20.30;67.11
788;BME280;16074;42.708;23.312;2022-08-05T02:08:47;95077.72;;;20.22;67.24
788;BME280;16074;42.708;23.312;2022-08-05T02:11:25;95069.84;;;20.15;67.53
788;BME280;16074;42.708;23.312;2022-08-05T02:14:03;95065.94;;;20.06;67.96
788;BME280;16074;42.708;23.312;2022-08-05T02:16:44;95068.72;;;20.00;67.98
788;BME280;16074;42.708;23.312;2022-08-05T02:19:30;95068.50;;;20.01;68.18
788;BME280;16074;42.708;23.312;2022-08-05T02:22:04;95078.34;;;20.01;68.37
788;BME280;16074;42.708;23.312;2022-08-05T02:24:54;95067.31;;;19.97;68.51
788;BME280;16074;42.708;23.312;2022-08-05T02:27:26;95062.13;;;20.02;67.35
788;BME280;16074;42.708;23.312;2022-08-05T02:30:16;95068.94;;;19.98;68.50
788;BME280;16074;42.708;23.312;2022-08-05T02:32:49;95062.34;;;20.01;68.66
788;BME280;16074;42.708;23.312;2022-08-05T02:35:20;95072.66;;;19.97;68.88
788;BME280;16074;42.708;23.312;2022-08-05T02:37:59;95061.16;;;19.97;68.36
788;BME280;16074;42.708;23.312;2022-08-05T02:40:29;95064.06;;;19.95;69.39
788;BME280;16074;42.708;23.312;2022-08-05T02:43:00;95063.03;;;19.96;68.93
788;BME280;16074;42.708;23.312;2022-08-05T02:45:35;95066.63;;;19.90;68.92
788;BME280;16074;42.708;23.312;2022-08-05T02:48:22;95066.16;;;19.93;68.61
788;BME280;16074;42.708;23.312;2022-08-05T02:50:57;95063.59;;;19.87;68.74
788;BME280;16074;42.708;23.312;2022-08-05T02:53:27;95061.50;;;19.89;69.06
788;BME280;16074;42.708;23.312;2022-08-05T02:56:07;95059.13;;;19.76;69.66
788;BME280;16074;42.708;23.312;2022-08-05T02:58:42;95060.38;;;19.73;70.45
788;BME280;16074;42.708;23.312;2022-08-05T03:01:19;95061.56;;;19.66;70.01
788;BME280;16074;42.708;23.312;2022-08-05T03:03:58;95061.59;;;19.54;71.14
788;BME280;16074;42.708;23.312;2022-08-05T03:06:29;95061.56;;;19.66;71.55
788;BME280;16074;42.708;23.312;2022-08-05T03:09:18;95062.81;;;19.63;71.62
788;BME280;16074;42.708;23.312;2022-08-05T03:12:04;95069.19;;;19.62;71.62
788;BME280;16074;42.708;23.312;2022-08-05T03:14:33;95061.00;;;19.52;71.52
788;BME280;16074;42.708;23.312;2022-08-05T03:17:11;95064.47;;;19.41;71.91
788;BME280;16074;42.708;23.312;2022-08-05T03:19:41;95076.63;;;19.37;72.27
788;BME280;16074;42.708;23.312;2022-08-05T03:22:14;95074.53;;;19.39;72.82
788;BME280;16074;42.708;23.312;2022-08-05T03:24:58;95078.13;;;19.33;72.46
788;BME280;16074;42.708;23.312;2022-08-05T03:27:49;95071.63;;;19.29;72.70
788;BME280;16074;42.708;23.312;2022-08-05T03:30:27;95069.09;;;19.34;72.53
788;BME280;16074;42.708;23.312;2022-08-05T03:33:00;95063.31;;;19.37;71.98
788;BME280;16074;42.708;23.312;2022-08-05T03:35:33;95069.44;;;19.38;71.55
788;BME280;16074;42.708;23.312;2022-08-05T03:38:09;95074.44;;;19.34;71.76
788;BME280;16074;42.708;23.312;2022-08-05T03:40:40;95070.94;;;19.34;72.38
788;BME280;16074;42.708;23.312;2022-08-05T03:43:15;95069.31;;;19.33;72.07
788;BME280;16074;42.708;23.312;2022-08-05T03:46:03;95069.91;;;19.35;72.29
788;BME280;16074;42.708;23.312;2022-08-05T03:48:34;95067.69;;;19.32;72.34
788;BME280;16074;42.708;23.312;2022-08-05T03:51:12;95073.47;;;19.29;72.19
788;BME280;16074;42.708;23.312;2022-08-05T03:54:05;95079.38;;;19.20;72.37
788;BME280;16074;42.708;23.312;2022-08-05T03:56:55;95072.69;;;19.17;72.11
788;BME280;16074;42.708;23.312;2022-08-05T03:59:30;95078.94;;;19.23;72.20
788;BME280;16074;42.708;23.312;2022-08-05T04:02:21;95075.56;;;19.27;71.53
788;BME280;16074;42.708;23.312;2022-08-05T04:05:11;95082.88;;;19.20;72.18
788;BME280;16074;42.708;23.312;2022-08-05T04:07:41;95075.00;;;19.25;72.71
788;BME280;16074;42.708;23.312;2022-08-05T04:10:25;95076.63;;;19.26;72.87
788;BME280;16074;42.708;23.312;2022-08-05T04:12:59;95077.53;;;19.31;72.04
788;BME280;16074;42.708;23.312;2022-08-05T04:15:30;95084.25;;;19.34;72.74
788;BME280;16074;42.708;23.312;2022-08-05T04:18:03;95078.00;;;19.40;71.79
788;BME280;16074;42.708;23.312;2022-08-05T04:20:33;95081.72;;;19.39;72.64
788;BME280;16074;42.708;23.312;2022-08-05T04:23:03;95073.63;;;19.45;71.97
788;BME280;16074;42.708;23.312;2022-08-05T04:25:38;95072.69;;;19.51;71.14
788;BME280;16074;42.708;23.312;2022-08-05T04:28:26;95072.13;;;19.49;70.49
788;BME280;16074;42.708;23.312;2022-08-05T04:30:58;95066.09;;;19.54;71.21
788;BME280;16074;42.708;23.312;2022-08-05T04:33:34;95068.28;;;19.57;70.18
788;BME280;16074;42.708;23.312;2022-08-05T04:36:22;95064.47;;;19.53;70.85
788;BME280;16074;42.708;23.312;2022-08-05T04:39:12;95073.38;;;19.58;71.33
788;BME280;16074;42.708;23.312;2022-08-05T04:41:41;95070.59;;;19.65;71.60
788;BME280;16074;42.708;23.312;2022-08-05T04:44:11;95067.56;;;19.61;70.63
788;BME280;16074;42.708;23.312;2022-08-05T04:46:39;95066.44;;;19.69;71.10
788;BME280;16074;42.708;23.312;2022-08-05T04:49:12;95074.44;;;19.69;71.13
788;BME280;16074;42.708;23.312;2022-08-05T04:51:41;95060.38;;;19.73;71.58
788;BME280;16074;42.708;23.312;2022-08-05T04:54:10;95070.59;;;19.76;70.85
788;BME280;16074;42.708;23.312;2022-08-05T04:56:41;95075.81;;;19.83;71.03
788;BME280;16074;42.708;23.312;2022-08-05T04:59:10;95077.31;;;19.79;71.20
788;BME280;16074;42.708;23.312;2022-08-05T05:01:59;95070.13;;;19.79;70.71
788;BME280;16074;42.708;23.312;2022-08-05T05:04:47;95072.66;;;19.86;70.54
788;BME280;16074;42.708;23.312;2022-08-05T05:07:17;95070.91;;;19.91;69.86
788;BME280;16074;42.708;23.312;2022-08-05T05:09:55;95060.59;;;19.95;70.24
788;BME280;16074;42.708;23.312;2022-08-05T05:12:25;95068.94;;;19.98;70.34
788;BME280;16074;42.708;23.312;2022-08-05T05:14:53;95063.16;;;20.01;69.84
788;BME280;16074;42.708;23.312;2022-08-05T05:17:22;95063.50;;;20.05;70.17
788;BME280;16074;42.708;23.312;2022-08-05T05:20:11;95063.38;;;20.11;70.10
788;BME280;16074;42.708;23.312;2022-08-05T05:22:40;95062.66;;;20.16;70.39
788;BME280;16074;42.708;23.312;2022-08-05T05:25:10;95066.34;;;20.26;69.71
788;BME280;16074;42.708;23.312;2022-08-05T05:27:44;95057.75;;;20.24;69.21
788;BME280;16074;42.708;23.312;2022-08-05T05:30:19;95065.16;;;20.34;69.23
788;BME280;16074;42.708;23.312;2022-08-05T05:32:57;95063.16;;;20.41;68.94
788;BME280;16074;42.708;23.312;2022-08-05T05:35:43;95060.94;;;20.49;68.46
788;BME280;16074;42.708;23.312;2022-08-05T05:38:13;95058.84;;;20.51;68.62
788;BME280;16074;42.708;23.312;2022-08-05T05:40:54;95058.78;;;20.62;68.82
788;BME280;16074;42.708;23.312;2022-08-05T05:43:24;95056.78;;;20.69;68.61
788;BME280;16074;42.708;23.312;2022-08-05T05:46:12;95053.94;;;20.76;68.11
788;BME280;16074;42.708;23.312;2022-08-05T05:48:45;95054.72;;;20.88;67.50
788;BME280;16074;42.708;23.312;2022-08-05T05:51:19;95063.13;;;20.96;66.73
788;BME280;16074;42.708;23.312;2022-08-05T05:53:48;95060.66;;;21.06;66.29
788;BME280;16074;42.708;23.312;2022-08-05T05:56:26;95057.25;;;21.11;66.23
788;BME280;16074;42.708;23.312;2022-08-05T05:59:01;95056.03;;;21.18;65.51
788;BME280;16074;42.708;23.312;2022-08-05T06:01:32;95062.78;;;21.21;65.34
788;BME280;16074;42.708;23.312;2022-08-05T06:04:05;95058.22;;;21.21;65.21
788;BME280;16074;42.708;23.312;2022-08-05T06:06:39;95057.91;;;21.34;65.29
788;BME280;16074;42.708;23.312;2022-08-05T06:09:08;95066.25;;;21.38;64.85
788;BME280;16074;42.708;23.312;2022-08-05T06:11:51;95060.81;;;21.49;64.50
788;BME280;16074;42.708;23.312;2022-08-05T06:14:29;95059.94;;;21.60;64.38
788;BME280;16074;42.708;23.312;2022-08-05T06:16:59;95073.16;;;21.67;64.00
788;BME280;16074;42.708;23.312;2022-08-05T06:19:47;95067.84;;;21.88;63.30
788;BME280;16074;42.708;23.312;2022-08-05T06:22:27;95060.38;;;21.90;62.98
788;BME280;16074;42.708;23.312;2022-08-05T06:24:55;95071.66;;;22.13;63.02
788;BME280;16074;42.708;23.312;2022-08-05T06:27:24;95068.63;;;22.26;62.17
788;BME280;16074;42.708;23.312;2022-08-05T06:30:13;95068.56;;;22.43;62.27
788;BME280;16074;42.708;23.312;2022-08-05T06:32:46;95063.63;;;22.56;61.55
788;BME280;16074;42.708;23.312;2022-08-05T06:35:16;95059.81;;;22.74;60.74
788;BME280;16074;42.708;23.312;2022-08-05T06:38:05;95065.66;;;22.71;59.25
788;BME280;16074;42.708;23.312;2022-08-05T06:40:37;95064.03;;;22.96;59.28
788;BME280;16074;42.708;23.312;2022-08-05T06:43:10;95062.88;;;23.08;59.27
788;BME280;16074;42.708;23.312;2022-08-05T06:46:00;95057.16;;;23.31;58.52
788;BME280;16074;42.708;23.312;2022-08-05T06:48:33;95062.09;;;23.44;58.18
788;BME280;16074;42.708;23.312;2022-08-05T06:51:22;95053.94;;;23.66;58.14
788;BME280;16074;42.708;23.312;2022-08-05T06:53:57;95058.56;;;23.75;56.65
788;BME280;16074;42.708;23.312;2022-08-05T06:56:25;95061.88;;;23.87;56.37
788;BME280;16074;42.708;23.312;2022-08-05T06:58:54;95062.97;;;23.91;55.88
788;BME280;16074;42.708;23.312;2022-08-05T07:01:24;95058.78;;;24.05;55.59
788;BME280;16074;42.708;23.312;2022-08-05T07:03:58;95059.41;;;24.22;55.00
788;BME280;16074;42.708;23.312;2022-08-05T07:06:28;95054.63;;;24.39;54.39
788;BME280;16074;42.708;23.312;2022-08-05T07:08:58;95056.34;;;24.60;53.91
788;BME280;16074;42.708;23.312;2022-08-05T07:11:31;95056.41;;;24.75;53.06
788;BME280;16074;42.708;23.312;2022-08-05T07:14:05;95059.94;;;24.90;52.41
788;BME280;16074;42.708;23.312;2022-08-05T07:17:05;95064.84;;;25.18;52.39
788;BME280;16074;42.708;23.312;2022-08-05T07:19:53;95058.38;;;25.34;50.84
788;BME280;16074;42.708;23.312;2022-08-05T07:22:42;95054.88;;;25.68;50.01
788;BME280;16074;42.708;23.312;2022-08-05T07:25:13;95057.81;;;26.02;48.91
788;BME280;16074;42.708;23.312;2022-08-05T07:28:02;95055.00;;;26.37;48.52
788;BME280;16074;42.708;23.312;2022-08-05T07:30:37;95053.44;;;26.89;47.66
788;BME280;16074;42.708;23.312;2022-08-05T07:33:09;95051.75;;;27.08;47.15
788;BME280;16074;42.708;23.312;2022-08-05T07:35:42;95048.91;;;27.28;46.10
788;BME280;16074;42.708;23.312;2022-08-05T07:38:31;95053.72;;;27.69;45.24
788;BME280;16074;42.708;23.312;2022-08-05T07:41:11;95049.81;;;27.85;44.52
788;BME280;16074;42.708;23.312;2022-08-05T07:44:02;95050.91;;;27.84;44.23
788;BME280;16074;42.708;23.312;2022-08-05T07:46:31;95057.47;;;28.30;43.55
788;BME280;16074;42.708;23.312;2022-08-05T07:49:01;95050.47;;;28.71;42.14
788;BME280;16074;42.708;23.312;2022-08-05T07:51:35;95054.25;;;28.23;42.02
788;BME280;16074;42.708;23.312;2022-08-05T07:54:21;95046.22;;;28.18;42.16
788;BME280;16074;42.708;23.312;2022-08-05T07:56:57;95057.84;;;28.18;40.97
788;BME280;16074;42.708;23.312;2022-08-05T07:59:45;95050.75;;;27.99;41.57
788;BME280;16074;42.708;23.312;2022-08-05T08:02:14;95047.81;;;28.19;41.93
788;BME280;16074;42.708;23.312;2022-08-05T08:04:46;95054.28;;;28.46;41.94
788;BME280;16074;42.708;23.312;2022-08-05T08:07:16;95054.91;;;28.62;41.29
788;BME280;16074;42.708;23.312;2022-08-05T08:09:48;95047.06;;;28.84;41.62
788;BME280;16074;42.708;23.312;2022-08-05T08:12:19;95044.31;;;28.65;42.39
788;BME280;16074;42.708;23.312;2022-08-05T08:15:08;95039.34;;;29.14;40.93
788;BME280;16074;42.708;23.312;2022-08-05T08:17:42;95045.66;;;29.46;40.53
788;BME280;16074;42.708;23.312;2022-08-05T08:20:17;95041.06;;;29.92;39.46
788;BME280;16074;42.708;23.312;2022-08-05T08:23:05;95042.75;;;30.47;38.70
788;BME280;16074;42.708;23.312;2022-08-05T08:25:53;95043.66;;;30.96;38.26
788;BME280;16074;42.708;23.312;2022-08-05T08:28:27;95041.25;;;31.44;37.32
788;BME280;16074;42.708;23.312;2022-08-05T08:31:03;95039.56;;;31.78;37.00
788;BME280;16074;42.708;23.312;2022-08-05T08:33:32;95041.97;;;32.01;36.31
788;BME280;16074;42.708;23.312;2022-08-05T08:36:06;95033.19;;;32.26;34.95
788;BME280;16074;42.708;23.312;2022-08-05T08:38:55;95039.13;;;32.37;34.77
788;BME280;16074;42.708;23.312;2022-08-05T08:41:25;95037.28;;;32.93;34.56
788;BME280;16074;42.708;23.312;2022-08-05T08:44:18;95036.97;;;33.11;34.12
788;BME280;16074;42.708;23.312;2022-08-05T08:47:06;95035.59;;;33.39;33.52
788;BME280;16074;42.708;23.312;2022-08-05T08:49:57;95036.59;;;33.69;33.57
788;BME280;16074;42.708;23.312;2022-08-05T08:52:49;95030.31;;;33.85;32.84
788;BME280;16074;42.708;23.312;2022-08-05T08:55:21;95037.34;;;33.95;32.39
788;BME280;16074;42.708;23.312;2022-08-05T08:58:10;95026.84;;;34.22;32.10
788;BME280;16074;42.708;23.312;2022-08-05T09:00:39;95031.53;;;34.05;30.99
788;BME280;16074;42.708;23.312;2022-08-05T09:03:10;95025.50;;;34.45;31.50
788;BME280;16074;42.708;23.312;2022-08-05T09:05:46;95017.53;;;34.69;30.09
788;BME280;16074;42.708;23.312;2022-08-05T09:08:35;95019.81;;;34.58;29.98
788;BME280;16074;42.708;23.312;2022-08-05T09:11:06;95020.78;;;34.62;28.05
788;BME280;16074;42.708;23.312;2022-08-05T09:13:40;95008.53;;;34.60;28.10
788;BME280;16074;42.708;23.312;2022-08-05T09:16:29;94999.34;;;34.81;28.12
788;BME280;16074;42.708;23.312;2022-08-05T09:18:57;95007.00;;;34.88;28.08
788;BME280;16074;42.708;23.312;2022-08-05T09:21:26;94999.00;;;34.83;27.28
788;BME280;16074;42.708;23.312;2022-08-05T09:24:16;95001.00;;;34.94;27.58
788;BME280;16074;42.708;23.312;2022-08-05T09:26:50;94996.63;;;34.73;27.36
788;BME280;16074;42.708;23.312;2022-08-05T09:29:19;94989.41;;;34.97;27.52
788;BME280;16074;42.708;23.312;2022-08-05T09:32:00;94984.13;;;35.42;27.67
788;BME280;16074;42.708;23.312;2022-08-05T09:34:50;94982.00;;;35.68;27.21
788;BME280;16074;42.708;23.312;2022-08-05T09:37:19;94989.34;;;35.87;26.61
788;BME280;16074;42.708;23.312;2022-08-05T09:40:28;94984.31;;;35.89;26.90
788;BME280;16074;42.708;23.312;2022-08-05T09:42:58;94985.88;;;36.11;27.07
788;BME280;16074;42.708;23.312;2022-08-05T09:45:37;94982.59;;;36.29;26.74
788;BME280;16074;42.708;23.312;2022-08-05T09:48:28;94972.25;;;36.59;26.87
788;BME280;16074;42.708;23.312;2022-08-05T09:51:00;94978.09;;;36.69;26.71
788;BME280;16074;42.708;23.312;2022-08-05T09:53:29;94980.38;;;36.79;25.97
788;BME280;16074;42.708;23.312;2022-08-05T09:56:25;94966.44;;;37.08;25.65
788;BME280;16074;42.708;23.312;2022-08-05T09:59:01;94965.09;;;36.78;26.12
788;BME280;16074;42.708;23.312;2022-08-05T10:01:30;94972.50;;;36.78;25.47
788;BME280;16074;42.708;23.312;2022-08-05T10:04:04;94961.66;;;36.69;25.84
788;BME280;16074;42.708;23.312;2022-08-05T10:06:37;94963.53;;;35.76;26.52
788;BME280;16074;42.708;23.312;2022-08-05T10:09:20;94956.25;;;35.80;26.81
788;BME280;16074;42.708;23.312;2022-08-05T10:12:06;94959.69;;;35.89;27.12
788;BME280;16074;42.708;23.312;2022-08-05T10:15:12;94952.38;;;36.14;27.16
788;BME280;16074;42.708;23.312;2022-08-05T10:17:43;94958.09;;;36.45;26.40
788;BME280;16074;42.708;23.312;2022-08-05T10:20:24;94955.16;;;36.74;25.49
788;BME280;16074;42.708;23.312;2022-08-05T10:22:53;94943.63;;;36.68;26.26
788;BME280;16074;42.708;23.312;2022-08-05T10:25:24;94952.91;;;37.27;26.18
788;BME280;16074;42.708;23.312;2022-08-05T10:27:56;94948.03;;;37.75;25.72
788;BME280;16074;42.708;23.312;2022-08-05T10:30:43;94941.31;;;38.16;25.40
788;BME280;16074;42.708;23.312;2022-08-05T10:33:33;94938.19;;;38.94;24.62
788;BME280;16074;42.708;23.312;2022-08-05T10:36:03;94944.59;;;39.33;23.77
788;BME280;16074;42.708;23.312;2022-08-05T10:38:33;94938.66;;;39.68;23.26
788;BME280;16074;42.708;23.312;2022-08-05T10:41:07;94938.81;;;40.17;23.67
788;BME280;16074;42.708;23.312;2022-08-05T10:43:48;94927.28;;;40.34;22.64
788;BME280;16074;42.708;23.312;2022-08-05T10:46:20;94933.22;;;40.36;22.25
788;BME280;16074;42.708;23.312;2022-08-05T10:48:55;94933.03;;;40.70;22.52
788;BME280;16074;42.708;23.312;2022-08-05T10:51:41;94933.56;;;41.27;21.71
788;BME280;16074;42.708;23.312;2022-08-05T10:54:44;94923.47;;;41.71;21.44
788;BME280;16074;42.708;23.312;2022-08-05T10:57:26;94914.94;;;42.20;20.95
788;BME280;16074;42.708;23.312;2022-08-05T11:00:09;94922.41;;;42.59;20.90
788;BME280;16074;42.708;23.312;2022-08-05T11:03:12;94914.47;;;42.54;20.76
788;BME280;16074;42.708;23.312;2022-08-05T11:06:09;94911.53;;;42.36;20.10
788;BME280;16074;42.708;23.312;2022-08-05T11:09:09;94900.66;;;42.14;20.38
788;BME280;16074;42.708;23.312;2022-08-05T11:11:43;94902.09;;;42.01;20.62
788;BME280;16074;42.708;23.312;2022-08-05T11:14:24;94900.63;;;41.74;21.01
788;BME280;16074;42.708;23.312;2022-08-05T11:17:31;94892.44;;;43.18;20.66
788;BME280;16074;42.708;23.312;2022-08-05T11:20:35;94901.13;;;44.12;20.57
788;BME280;16074;42.708;23.312;2022-08-05T11:23:34;94903.13;;;44.92;19.26
788;BME280;16074;42.708;23.312;2022-08-05T11:26:23;94896.34;;;45.31;18.76
788;BME280;16074;42.708;23.312;2022-08-05T11:28:59;94902.28;;;45.26;18.96
788;BME280;16074;42.708;23.312;2022-08-05T11:31:42;94888.28;;;45.65;19.10
788;BME280;16074;42.708;23.312;2022-08-05T11:34:38;94891.13;;;45.51;19.09
788;BME280;16074;42.708;23.312;2022-08-05T11:40:56;94875.81;;;44.35;19.73
788;BME280;16074;42.708;23.312;2022-08-05T11:43:52;94878.94;;;44.16;19.33
788;BME280;16074;42.708;23.312;2022-08-05T11:46:34;94871.53;;;43.31;19.77
788;BME280;16074;42.708;23.312;2022-08-05T11:49:04;94875.56;;;43.51;20.00
788;BME280;16074;42.708;23.312;2022-08-05T11:51:40;94873.91;;;43.36;19.92
788;BME280;16074;42.708;23.312;2022-08-05T11:54:20;94874.47;;;43.69;19.95
788;BME280;16074;42.708;23.312;2022-08-05T11:57:00;94867.88;;;43.13;20.28
788;BME280;16074;42.708;23.312;2022-08-05T11:59:49;94873.28;;;43.77;20.05
788;BME280;16074;42.708;23.312;2022-08-05T12:02:23;94869.84;;;44.54;19.12
788;BME280;16074;42.708;23.312;2022-08-05T12:05:00;94872.63;;;44.68;19.11
788;BME280;16074;42.708;23.312;2022-08-05T12:07:36;94872.38;;;45.69;18.55
788;BME280;16074;42.708;23.312;2022-08-05T12:10:26;94859.63;;;45.85;18.26
788;BME280;16074;42.708;23.312;2022-08-05T12:13:14;94868.50;;;46.28;17.85
788;BME280;16074;42.708;23.312;2022-08-05T12:16:05;94856.50;;;45.73;18.22
788;BME280;16074;42.708;23.312;2022-08-05T12:18:42;94858.97;;;46.25;17.57
788;BME280;16074;42.708;23.312;2022-08-05T12:21:23;94855.56;;;45.97;17.44
788;BME280;16074;42.708;23.312;2022-08-05T12:24:02;94850.88;;;44.35;18.69
788;BME280;16074;42.708;23.312;2022-08-05T12:26:34;94847.25;;;44.13;18.76
788;BME280;16074;42.708;23.312;2022-08-05T12:29:04;94848.72;;;43.65;19.11
788;BME280;16074;42.708;23.312;2022-08-05T12:31:38;94843.72;;;43.10;20.41
788;BME280;16074;42.708;23.312;2022-08-05T12:34:21;94836.41;;;42.27;21.07
788;BME280;16074;42.708;23.312;2022-08-05T12:36:52;94838.59;;;41.32;21.89
788;BME280;16074;42.708;23.312;2022-08-05T12:39:24;94842.56;;;40.50;22.70
788;BME280;16074;42.708;23.312;2022-08-05T12:42:08;94838.44;;;39.95;23.07
788;BME280;16074;42.708;23.312;2022-08-05T12:44:41;94829.91;;;39.18;23.47
788;BME280;16074;42.708;23.312;2022-08-05T12:47:11;94822.44;;;38.99;23.88
788;BME280;16074;42.708;23.312;2022-08-05T12:49:45;94820.53;;;38.50;24.53
788;BME280;16074;42.708;23.312;2022-08-05T12:52:31;94818.94;;;39.40;24.10
788;BME280;16074;42.708;23.312;2022-08-05T12:55:20;94820.59;;;40.57;22.37
788;BME280;16074;42.708;23.312;2022-08-05T12:57:52;94813.38;;;41.33;21.87
788;BME280;16074;42.708;23.312;2022-08-05T13:00:42;94814.19;;;42.64;20.52
788;BME280;16074;42.708;23.312;2022-08-05T13:03:32;94818.25;;;43.62;19.90
788;BME280;16074;42.708;23.312;2022-08-05T13:06:13;94813.22;;;44.34;18.86
788;BME280;16074;42.708;23.312;2022-08-05T13:08:42;94815.94;;;44.79;18.78
788;BME280;16074;42.708;23.312;2022-08-05T13:11:20;94812.94;;;45.49;18.13
788;BME280;16074;42.708;23.312;2022-08-05T13:14:20;94810.22;;;46.07;18.70
788;BME280;16074;42.708;23.312;2022-08-05T13:17:06;94802.00;;;46.40;18.53
788;BME280;16074;42.708;23.312;2022-08-05T13:19:36;94799.25;;;46.80;17.95
788;BME280;16074;42.708;23.312;2022-08-05T13:22:19;94800.00;;;47.25;17.91
788;BME280;16074;42.708;23.312;2022-08-05T13:24:56;94796.59;;;47.70;17.92
788;BME280;16074;42.708;23.312;2022-08-05T13:27:35;94804.47;;;48.05;17.18
788;BME280;16074;42.708;23.312;2022-08-05T13:30:07;94797.38;;;48.23;17.11
788;BME280;16074;42.708;23.312;2022-08-05T13:32:56;94796.47;;;47.80;17.76
788;BME280;16074;42.708;23.312;2022-08-05T13:35:27;94784.94;;;47.78;17.55
788;BME280;16074;42.708;23.312;2022-08-05T13:38:13;94797.19;;;47.84;17.29
788;BME280;16074;42.708;23.312;2022-08-05T13:41:00;94791.38;;;48.25;16.48
788;BME280;16074;42.708;23.312;2022-08-05T13:43:30;94792.00;;;48.36;16.62
788;BME280;16074;42.708;23.312;2022-08-05T13:46:18;94787.44;;;48.45;16.65
788;BME280;16074;42.708;23.312;2022-08-05T13:49:07;94789.53;;;48.64;16.41
788;BME280;16074;42.708;23.312;2022-08-05T13:51:38;94791.59;;;48.83;16.48
788;BME280;16074;42.708;23.312;2022-08-05T13:54:07;94788.13;;;48.53;16.55
788;BME280;16074;42.708;23.312;2022-08-05T13:56:39;94793.97;;;48.62;16.69
788;BME280;16074;42.708;23.312;2022-08-05T13:59:19;94783.13;;;48.87;16.73
788;BME280;16074;42.708;23.312;2022-08-05T14:01:53;94784.25;;;47.97;16.79
788;BME280;16074;42.708;23.312;2022-08-05T14:04:26;94779.47;;;47.98;16.96
788;BME280;16074;42.708;23.312;2022-08-05T14:07:18;94776.84;;;47.87;16.57
788;BME280;16074;42.708;23.312;2022-08-05T14:10:06;94771.38;;;48.07;16.44
788;BME280;16074;42.708;23.312;2022-08-05T14:12:35;94777.78;;;47.14;16.77